Terminal Aerodrome Forecast
Issued by NWS

Home | Current Version | Previous Version | Text Only | Print | Product List | Glossary On
Versions: 1 2 3 4 5 6 7 8 9 10 11 12
000
FTUS45 KGGW 250500 RRA
TAFGDV
TAF
KGDV 250541Z 2506/2606 27005KT P6SM FEW120 SCT300
     FM251600 13007KT P6SM SKC
     FM251900 14012G18KT P6SM SKC
     FM252300 11009KT P6SM FEW300
      AMD LTD TO CLD VIS AND WIND=

USA.gov is the U.S. government's official web portal to all federal, state and local government web resources and services.